Time;durP1;ratioP1;P1;durP2;ratioP2;P2;SDS_P1;SDS_P2;PMS_P1;PMS_P2;Temp;Humidity;BMP_temperature;BMP_pressure;BME280_temperature;BME280_humidity;BME280_pressure;Samples;Min_cycle;Max_cycle;Signal;HPM_P1;HPM_P2
2023/03/30 00:01:10;;;;;;;7.35;1.20;;;13.80;90.00;;;;;;7403277;19;20008;-72
2023/03/30 00:03:37;;;;;;;6.13;1.02;;;13.80;90.10;;;;;;7401750;19;19918;-72
2023/03/30 00:06:04;;;;;;;;;;;13.80;90.10;;;;;;7399576;19;19929;-73
2023/03/30 00:08:32;;;;;;;6.15;0.80;;;13.80;90.20;;;;;;7394517;19;19925;-73
2023/03/30 00:11:08;;;;;;;7.00;1.27;;;13.80;90.30;;;;;;7403540;19;19926;-73
2023/03/30 00:13:35;;;;;;;4.30;0.77;;;13.90;90.50;;;;;;7403942;19;19910;-73
2023/03/30 00:16:03;;;;;;;5.45;0.85;;;13.80;90.50;;;;;;7402722;19;19919;-72
2023/03/30 00:18:29;;;;;;;6.40;0.80;;;13.80;90.60;;;;;;7401378;19;19926;-72
2023/03/30 00:20:55;;;;;;;5.95;1.25;;;13.80;90.70;;;;;;7399436;19;19925;-74
2023/03/30 00:23:21;;;;;;;5.95;0.90;;;13.80;90.70;;;;;;7400876;19;19922;-74
2023/03/30 00:25:47;;;;;;;7.40;1.00;;;13.80;90.70;;;;;;7384189;19;20018;-73
2023/03/30 00:28:13;;;;;;;5.10;1.05;;;13.80;90.80;;;;;;7400274;19;19922;-73
2023/03/30 00:30:39;;;;;;;6.20;1.00;;;13.90;90.80;;;;;;7402425;19;19939;-73
2023/03/30 00:33:06;;;;;;;5.45;1.00;;;13.90;90.90;;;;;;7404062;19;20326;-75
2023/03/30 00:35:31;;;;;;;5.82;0.90;;;13.80;91.00;;;;;;7401896;19;19907;-73
2023/03/30 00:38:00;;;;;;;6.45;1.05;;;13.80;91.50;;;;;;7400137;19;19944;-73
2023/03/30 00:40:27;;;;;;;7.15;1.05;;;13.80;91.40;;;;;;7402334;19;19924;-73
2023/03/30 00:43:10;;;;;;;5.25;0.90;;;13.80;91.50;;;;;;7403367;19;20540;-74
2023/03/30 00:45:37;;;;;;;5.85;1.27;;;13.80;91.70;;;;;;7402255;19;20024;-73
2023/03/30 00:48:14;;;;;;;7.70;1.10;;;13.80;92.10;;;;;;7402003;19;19923;-72
2023/03/30 00:50:58;;;;;;;7.35;1.10;;;13.80;92.20;;;;;;7402887;19;19994;-73
2023/03/30 00:53:37;;;;;;;5.13;0.90;;;13.80;92.40;;;;;;7403286;19;19927;-73
2023/03/30 00:56:06;;;;;;;5.18;0.93;;;13.80;92.50;;;;;;7399776;19;19910;-73
2023/03/30 00:58:34;;;;;;;6.32;1.00;;;13.80;92.60;;;;;;7404118;19;19923;-72
2023/03/30 01:01:03;;;;;;;5.43;1.13;;;13.80;92.60;;;;;;7403480;19;20324;-73
2023/03/30 01:03:38;;;;;;;7.13;1.13;;;13.80;92.50;;;;;;7402474;19;19921;-73
2023/03/30 01:06:08;;;;;;;5.57;1.02;;;13.80;92.50;;;;;;7401152;19;19933;-73
2023/03/30 01:08:36;;;;;;;3.90;1.25;;;13.80;92.40;;;;;;7401284;19;19910;-73
2023/03/30 01:11:05;;;;;;;6.93;1.00;;;13.70;92.60;;;;;;7400610;19;19917;-73
2023/03/30 01:13:34;;;;;;;8.40;1.60;;;13.80;92.60;;;;;;7398167;19;19934;-73
2023/03/30 01:16:19;;;;;;;7.72;1.27;;;13.80;92.30;;;;;;7399645;19;19978;-73
2023/03/30 01:19:23;;;;;;;7.72;1.33;;;13.80;92.40;;;;;;7398498;19;19919;-72
2023/03/30 01:22:13;;;;;;;4.20;0.70;;;13.70;92.40;;;;;;7396063;19;19915;-73
2023/03/30 01:24:52;;;;;;;6.25;1.20;;;13.70;92.60;;;;;;7401300;19;19926;-73
2023/03/30 01:27:48;;;;;;;4.88;1.30;;;13.70;92.60;;;;;;7369620;19;19935;-72
2023/03/30 01:30:36;;;;;;;5.20;0.80;;;13.70;92.70;;;;;;7401998;19;19919;-72
2023/03/30 01:33:25;;;;;;;7.22;0.90;;;13.60;92.80;;;;;;7398750;19;19915;-72
2023/03/30 01:35:59;;;;;;;8.43;0.90;;;13.60;93.00;;;;;;7402147;19;20004;-72
2023/03/30 01:38:43;;;;;;;6.13;0.90;;;13.60;92.90;;;;;;7398700;19;20263;-73
2023/03/30 01:41:28;;;;;;;8.30;1.10;;;13.50;93.10;;;;;;7398702;19;19907;-73
2023/03/30 01:43:59;;;;;;;8.02;1.50;;;13.50;93.20;;;;;;7401462;19;19982;-72
2023/03/30 01:46:39;;;;;;;6.38;1.20;;;13.40;93.30;;;;;;7400826;19;19921;-72
2023/03/30 01:49:17;;;;;;;6.53;0.95;;;13.30;93.60;;;;;;7399481;19;20246;-72
2023/03/30 01:52:06;;;;;;;8.43;0.95;;;13.30;93.60;;;;;;7405332;19;19934;-72
2023/03/30 01:55:01;;;;;;;4.70;0.90;;;13.30;93.70;;;;;;7406872;19;19944;-72
2023/03/30 01:57:40;;;;;;;6.38;0.98;;;13.20;93.70;;;;;;7406661;19;19918;-71
2023/03/30 02:00:13;;;;;;;4.70;1.05;;;13.30;94.00;;;;;;7406408;19;19915;-71
2023/03/30 02:02:47;;;;;;;5.78;1.25;;;13.20;93.90;;;;;;7408649;19;19926;-72
2023/03/30 02:05:16;;;;;;;4.65;1.10;;;13.20;94.00;;;;;;7405869;19;20021;-70
2023/03/30 02:07:47;;;;;;;4.93;1.15;;;13.20;94.20;;;;;;7408063;19;19917;-72
2023/03/30 02:10:15;;;;;;;5.70;0.88;;;13.10;94.20;;;;;;7407669;19;19926;-73
2023/03/30 02:12:41;;;;;;;5.57;0.80;;;13.00;94.40;;;;;;7408101;19;19922;-72
2023/03/30 02:15:09;;;;;;;5.20;0.90;;;12.90;94.50;;;;;;7407154;19;19929;-72
2023/03/30 02:17:36;;;;;;;4.90;1.00;;;12.80;94.60;;;;;;7407301;19;19946;-72
2023/03/30 02:20:07;;;;;;;6.57;1.23;;;12.80;94.70;;;;;;7404028;19;19915;-73
2023/03/30 02:22:33;;;;;;;5.65;1.10;;;12.80;94.80;;;;;;7406392;19;19919;-72
2023/03/30 02:24:59;;;;;;;6.47;1.17;;;12.70;94.80;;;;;;7407104;19;19930;-73
2023/03/30 02:27:27;;;;;;;5.93;0.98;;;12.60;94.80;;;;;;7406319;19;19981;-73
2023/03/30 02:29:55;;;;;;;4.70;0.80;;;12.70;95.00;;;;;;7407322;19;19922;-73
2023/03/30 02:32:27;;;;;;;6.10;0.88;;;12.70;94.90;;;;;;7407062;19;19926;-73
2023/03/30 02:35:24;;;;;;;4.38;0.93;;;12.60;94.70;;;;;;7407620;19;20675;-73
2023/03/30 02:37:59;;;;;;;4.00;0.98;;;12.70;94.80;;;;;;7405459;19;19914;-73
2023/03/30 02:41:01;;;;;;;5.10;0.90;;;12.70;94.80;;;;;;7408531;19;20420;-72
2023/03/30 02:43:52;;;;;;;4.15;0.80;;;12.80;94.70;;;;;;7405653;19;19999;-72
2023/03/30 02:46:17;;;;;;;4.75;1.25;;;12.80;94.70;;;;;;7405763;19;19941;-73
2023/03/30 02:48:58;;;;;;;4.15;0.90;;;13.00;94.80;;;;;;7406700;19;19911;-74
2023/03/30 02:51:30;;;;;;;3.90;0.85;;;13.10;94.50;;;;;;7404945;19;19918;-71
2023/03/30 02:54:18;;;;;;;5.55;1.10;;;13.20;94.50;;;;;;7404724;19;19948;-72
2023/03/30 02:56:47;;;;;;;7.63;1.02;;;13.10;94.30;;;;;;7405181;19;19930;-73
2023/03/30 02:59:19;;;;;;;6.13;1.10;;;13.10;94.40;;;;;;7405187;19;19950;-72
2023/03/30 03:01:50;;;;;;;5.25;0.93;;;13.10;94.60;;;;;;7405119;19;19930;-73
2023/03/30 03:04:17;;;;;;;4.75;0.90;;;13.00;94.60;;;;;;7404831;19;19907;-74
2023/03/30 03:06:45;;;;;;;7.03;1.10;;;12.90;94.80;;;;;;7405684;19;19986;-72
2023/03/30 03:09:10;;;;;;;3.72;0.85;;;12.90;94.90;;;;;;7408068;19;19915;-73
2023/03/30 03:11:36;;;;;;;4.32;1.05;;;12.90;95.10;;;;;;7405810;19;19959;-73
2023/03/30 03:14:02;;;;;;;6.93;0.85;;;12.80;95.30;;;;;;7405127;19;19938;-73
2023/03/30 03:16:28;;;;;;;5.53;0.90;;;12.70;95.40;;;;;;7406486;19;19919;-73
2023/03/30 03:18:54;;;;;;;5.15;0.95;;;12.70;95.40;;;;;;7406301;19;19991;-72
2023/03/30 03:21:20;;;;;;;8.30;1.02;;;12.80;95.60;;;;;;7405527;19;19915;-72
2023/03/30 03:23:47;;;;;;;4.03;0.80;;;12.80;95.50;;;;;;7407723;19;19911;-73
2023/03/30 03:26:13;;;;;;;6.72;1.40;;;12.80;96.00;;;;;;7383127;19;19930;-73
2023/03/30 03:28:39;;;;;;;5.88;1.05;;;12.90;96.00;;;;;;7405220;19;19974;-72
2023/03/30 03:31:05;;;;;;;7.22;1.02;;;12.80;96.00;;;;;;7403911;19;19919;-72
2023/03/30 03:33:31;;;;;;;7.13;1.13;;;12.80;96.20;;;;;;7407806;19;19918;-72
2023/03/30 03:35:58;;;;;;;5.88;0.95;;;12.90;96.50;;;;;;7408038;19;19966;-73
2023/03/30 03:38:28;;;;;;;4.25;0.80;;;12.80;96.50;;;;;;7405098;19;19921;-72
2023/03/30 03:40:56;;;;;;;5.60;1.00;;;12.70;96.70;;;;;;7404691;19;19945;-72
2023/03/30 03:43:23;;;;;;;5.90;1.20;;;12.70;96.90;;;;;;7403695;19;20015;-73
2023/03/30 03:45:49;;;;;;;6.00;1.10;;;12.90;96.90;;;;;;7404213;19;19918;-73
2023/03/30 03:48:17;;;;;;;6.90;1.20;;;13.00;97.00;;;;;;7345456;19;20366;-73
2023/03/30 03:50:44;;;;;;;8.90;2.22;;;13.00;96.80;;;;;;7405543;19;20376;-74
2023/03/30 03:53:11;;;;;;;6.00;1.05;;;13.00;96.90;;;;;;7402479;19;19938;-73
2023/03/30 03:55:36;;;;;;;4.97;1.10;;;12.90;96.80;;;;;;7402287;19;19922;-74
2023/03/30 03:58:04;;;;;;;6.35;1.00;;;12.90;97.10;;;;;;7403391;19;19911;-72
2023/03/30 04:00:30;;;;;;;6.05;1.20;;;12.90;97.70;;;;;;7400842;19;19910;-72
2023/03/30 04:02:56;;;;;;;7.88;1.63;;;12.90;97.70;;;;;;7403299;19;19938;-72
2023/03/30 04:05:23;;;;;;;7.68;1.60;;;12.70;97.80;;;;;;7402077;19;20443;-72
2023/03/30 04:07:48;;;;;;;6.80;1.65;;;12.70;97.90;;;;;;7404999;19;19986;-76
2023/03/30 04:10:14;;;;;;;7.45;1.80;;;12.60;98.40;;;;;;7402154;19;19952;-73
2023/03/30 04:12:40;;;;;;;9.30;1.38;;;12.60;98.50;;;;;;7401318;19;20255;-73
2023/03/30 04:15:06;;;;;;;9.02;1.50;;;12.60;98.60;;;;;;7398670;19;19922;-72
2023/03/30 04:17:35;;;;;;;8.00;1.27;;;12.60;98.80;;;;;;7402139;19;19922;-72
2023/03/30 04:20:03;;;;;;;10.52;1.60;;;12.60;98.80;;;;;;7405100;19;20340;-71
2023/03/30 04:22:34;;;;;;;8.88;1.33;;;12.60;98.90;;;;;;7402337;19;20013;-72
2023/03/30 04:25:01;;;;;;;7.60;1.10;;;12.60;99.50;;;;;;7402631;19;19967;-72
2023/03/30 04:27:27;;;;;;;6.13;1.50;;;12.70;99.50;;;;;;7401497;19;20335;-73
2023/03/30 04:29:56;;;;;;;8.82;1.58;;;12.70;99.50;;;;;;7404124;19;20432;-73
2023/03/30 04:32:25;;;;;;;9.48;1.88;;;12.70;99.80;;;;;;7399007;19;19998;-73
2023/03/30 04:34:53;;;;;;;7.05;1.48;;;12.70;99.90;;;;;;7400431;19;20348;-72
2023/03/30 04:37:29;;;;;;;7.63;1.60;;;12.80;99.90;;;;;;7399178;19;19915;-73
2023/03/30 04:40:06;;;;;;;11.32;1.80;;;12.70;99.90;;;;;;7402193;19;19907;-72
2023/03/30 04:42:36;;;;;;;8.70;1.70;;;12.70;99.90;;;;;;7400714;19;19924;-74
2023/03/30 04:45:04;;;;;;;8.48;1.75;;;12.60;99.90;;;;;;7399432;19;19949;-72
2023/03/30 04:47:30;;;;;;;5.97;2.17;;;12.60;99.90;;;;;;7399216;19;19911;-73
2023/03/30 04:49:56;;;;;;;8.57;1.70;;;12.60;99.90;;;;;;7402988;19;19924;-73
2023/03/30 04:52:22;;;;;;;10.15;2.30;;;12.50;99.90;;;;;;7399798;19;21714;-73
2023/03/30 04:54:48;;;;;;;11.90;1.98;;;12.60;99.90;;;;;;7403521;19;20348;-72
2023/03/30 04:57:14;;;;;;;10.20;2.17;;;12.50;99.90;;;;;;7401686;19;19927;-72
2023/03/30 04:59:42;;;;;;;5.90;1.70;;;12.50;99.90;;;;;;7400808;19;19926;-73
2023/03/30 05:02:09;;;;;;;9.15;2.15;;;12.50;99.90;;;;;;7400709;19;19922;-73
2023/03/30 05:04:35;;;;;;;11.48;1.92;;;12.50;99.90;;;;;;7402478;19;19926;-73
2023/03/30 05:07:01;;;;;;;10.40;2.05;;;12.50;99.90;;;;;;7402884;19;19970;-72
2023/03/30 05:09:27;;;;;;;11.70;2.55;;;12.40;99.90;;;;;;7400777;19;19921;-73
2023/03/30 05:11:53;;;;;;;8.70;1.73;;;12.30;99.90;;;;;;7403646;19;19914;-72
2023/03/30 05:14:19;;;;;;;7.82;1.98;;;12.40;99.90;;;;;;7400075;19;19921;-72
2023/03/30 05:16:44;;;;;;;7.97;1.80;;;12.40;99.90;;;;;;7402804;19;19939;-72
2023/03/30 05:19:10;;;;;;;11.38;2.03;;;12.30;99.90;;;;;;7401105;19;19906;-73
2023/03/30 05:21:36;;;;;;;11.13;1.95;;;12.30;99.90;;;;;;7402402;19;19917;-73
2023/03/30 05:24:02;;;;;;;12.07;2.35;;;12.30;99.90;;;;;;7400563;19;19933;-73
2023/03/30 05:26:28;;;;;;;12.90;2.50;;;12.30;99.90;;;;;;7368768;19;20335;-73
2023/03/30 05:28:54;;;;;;;9.18;1.92;;;12.30;99.90;;;;;;7398131;19;19999;-73
2023/03/30 05:31:20;;;;;;;9.18;1.92;;;12.20;99.90;;;;;;7401207;19;19911;-72
2023/03/30 05:33:46;;;;;;;7.60;1.63;;;12.20;99.90;;;;;;7401014;19;19915;-72
2023/03/30 05:36:12;;;;;;;11.10;2.15;;;12.10;99.90;;;;;;7377992;19;20373;-73
2023/03/30 05:38:38;;;;;;;8.27;2.10;;;12.10;99.90;;;;;;7401136;19;19922;-73
2023/03/30 05:41:05;;;;;;;5.72;1.75;;;12.10;99.90;;;;;;7399288;19;19930;-73
2023/03/30 05:43:32;;;;;;;9.43;1.92;;;12.10;99.90;;;;;;7400413;19;19962;-75
2023/03/30 05:45:59;;;;;;;6.60;1.85;;;12.20;99.90;;;;;;7403021;19;19918;-73
2023/03/30 05:48:25;;;;;;;6.35;1.63;;;12.20;99.90;;;;;;7398637;19;20311;-73
2023/03/30 05:50:51;;;;;;;12.23;2.22;;;12.30;99.90;;;;;;7402637;19;19956;-73
2023/03/30 05:53:17;;;;;;;9.20;1.90;;;12.40;99.90;;;;;;7399645;19;19966;-73
2023/03/30 05:55:47;;;;;;;6.43;1.92;;;12.40;99.90;;;;;;7399734;19;19922;-72
2023/03/30 05:58:13;;;;;;;11.43;2.10;;;12.40;99.90;;;;;;7398502;19;19933;-73
2023/03/30 06:00:40;;;;;;;10.07;2.10;;;12.40;99.90;;;;;;7402543;19;19923;-75
2023/03/30 06:03:10;;;;;;;;;;;12.30;99.90;;;;;;7402934;19;19926;-73
2023/03/30 06:05:44;;;;;;;11.82;2.35;;;12.30;99.90;;;;;;7399184;19;19958;-73
2023/03/30 06:08:10;;;;;;;11.77;2.60;;;12.30;99.90;;;;;;7398638;19;19946;-72
2023/03/30 06:10:37;;;;;;;12.45;2.47;;;12.30;99.90;;;;;;7399564;19;19939;-72
2023/03/30 06:13:03;;;;;;;6.18;1.75;;;12.40;99.90;;;;;;7398130;19;19918;-73
2023/03/30 06:15:29;;;;;;;10.30;2.15;;;12.50;99.90;;;;;;7400106;19;19915;-74
2023/03/30 06:17:55;;;;;;;18.63;2.47;;;12.50;99.90;;;;;;7401171;19;19941;-74
2023/03/30 06:20:23;;;;;;;7.03;1.85;;;12.60;99.90;;;;;;7398758;19;19918;-73
2023/03/30 06:22:49;;;;;;;12.80;2.13;;;12.70;99.90;;;;;;7400141;19;20247;-73
2023/03/30 06:25:15;;;;;;;15.27;2.35;;;12.80;99.90;;;;;;7396946;19;19914;-72
2023/03/30 06:27:41;;;;;;;7.20;1.75;;;12.90;99.90;;;;;;7400784;19;20012;-74
2023/03/30 06:30:11;;;;;;;8.30;2.00;;;13.00;99.90;;;;;;7397658;19;19931;-74
2023/03/30 06:32:37;;;;;;;9.20;2.00;;;13.10;99.90;;;;;;7399998;19;19922;-73
2023/03/30 06:35:03;;;;;;;10.45;2.33;;;13.20;99.90;;;;;;7396978;19;19919;-73
2023/03/30 06:37:35;;;;;;;7.88;1.70;;;13.20;99.90;;;;;;7406206;19;19929;-73
2023/03/30 06:40:07;;;;;;;7.97;1.50;;;13.20;99.90;;;;;;7408115;19;19918;-74
2023/03/30 06:42:33;;;;;;;12.38;2.10;;;13.30;99.90;;;;;;7403702;19;20287;-72
2023/03/30 06:44:59;;;;;;;6.05;1.63;;;13.30;99.90;;;;;;7407538;19;20335;-73
2023/03/30 06:47:25;;;;;;;9.43;2.30;;;13.30;99.90;;;;;;7406169;19;19954;-73
2023/03/30 06:49:51;;;;;;;6.90;1.95;;;13.40;99.90;;;;;;7408317;19;19922;-73
2023/03/30 06:52:17;;;;;;;8.95;2.03;;;13.40;99.90;;;;;;7383582;19;19929;-73
2023/03/30 06:54:43;;;;;;;7.65;2.15;;;13.50;99.90;;;;;;7407727;19;19926;-73
2023/03/30 06:57:09;;;;;;;12.43;1.95;;;13.50;99.90;;;;;;7404197;19;20390;-73
2023/03/30 06:59:35;;;;;;;11.57;2.22;;;13.50;99.90;;;;;;7408898;19;20266;-73
2023/03/30 07:02:02;;;;;;;9.23;1.98;;;13.50;99.90;;;;;;7408479;19;19911;-75
2023/03/30 07:04:28;;;;;;;9.63;1.90;;;13.60;99.90;;;;;;7406968;19;19919;-73
2023/03/30 07:06:58;;;;;;;9.23;1.95;;;13.60;99.50;;;;;;7408912;19;19939;-73
2023/03/30 07:09:25;;;;;;;7.40;2.05;;;13.80;99.30;;;;;;7405000;19;19918;-75
2023/03/30 07:11:51;;;;;;;11.73;2.40;;;13.80;99.10;;;;;;7404309;19;19907;-72
2023/03/30 07:14:17;;;;;;;7.93;1.90;;;13.80;99.00;;;;;;7406131;19;19923;-72
2023/03/30 07:16:42;;;;;;;10.00;2.22;;;13.90;98.50;;;;;;7395993;19;19928;-72
2023/03/30 07:19:08;;;;;;;14.65;2.72;;;13.90;98.40;;;;;;7406440;19;20679;-74
2023/03/30 07:21:34;;;;;;;9.77;1.83;;;13.90;98.40;;;;;;7406226;19;19915;-72
2023/03/30 07:24:00;;;;;;;8.57;1.75;;;14.00;98.40;;;;;;7406011;19;19914;-72
2023/03/30 07:26:27;;;;;;;8.90;2.38;;;14.00;98.30;;;;;;7405016;19;20336;-73
2023/03/30 07:28:55;;;;;;;;;;;14.00;98.10;;;;;;7388085;19;20268;-74
2023/03/30 07:31:22;;;;;;;7.97;1.80;;;14.00;98.40;;;;;;7403783;19;20350;-73
2023/03/30 07:33:48;;;;;;;9.82;2.13;;;13.90;98.50;;;;;;7405794;19;20371;-73
2023/03/30 07:36:14;;;;;;;8.40;2.47;;;13.90;98.60;;;;;;7406236;19;19945;-73
2023/03/30 07:38:40;;;;;;;8.32;2.35;;;14.00;98.60;;;;;;7404768;19;19919;-73
2023/03/30 07:41:08;;;;;;;7.15;2.00;;;14.10;98.50;;;;;;7404567;19;19924;-74
2023/03/30 07:43:35;;;;;;;29.35;10.73;;;14.20;98.30;;;;;;7398001;19;19910;-73
2023/03/30 07:46:01;;;;;;;;;;;14.20;98.40;;;;;;7408478;19;20665;-74
2023/03/30 07:48:27;;;;;;;10.70;2.50;;;14.20;98.40;;;;;;7396803;19;20030;-75
2023/03/30 07:51:05;;;;;;;10.60;2.53;;;14.20;98.30;;;;;;7402603;19;19927;-73
2023/03/30 07:53:32;;;;;;;10.68;2.47;;;14.40;98.20;;;;;;7395400;19;20042;-73
2023/03/30 07:55:58;;;;;;;8.68;2.33;;;14.50;98.00;;;;;;7405351;19;19925;-74
2023/03/30 07:58:25;;;;;;;9.05;2.58;;;14.60;97.90;;;;;;7397195;19;20015;-74
2023/03/30 08:00:52;;;;;;;8.63;2.72;;;14.80;97.60;;;;;;7399965;19;20013;-74
2023/03/30 08:03:20;;;;;;;8.43;2.30;;;14.90;97.30;;;;;;7383826;19;20368;-74
2023/03/30 08:05:59;;;;;;;7.03;2.40;;;14.80;97.50;;;;;;7405280;19;19953;-74
2023/03/30 08:08:26;;;;;;;10.57;2.67;;;14.80;97.50;;;;;;7398493;19;19918;-73
2023/03/30 08:10:52;;;;;;;;;;;15.00;97.40;;;;;;7405332;19;19937;-73
2023/03/30 08:13:19;;;;;;;7.80;2.30;;;15.10;96.80;;;;;;7400510;19;19978;-73
2023/03/30 08:15:45;;;;;;;;;;;15.10;96.80;;;;;;7404357;19;19911;-73
2023/03/30 08:18:12;;;;;;;9.90;2.42;;;15.20;96.80;;;;;;7403056;19;19945;-72
2023/03/30 08:20:40;;;;;;;9.25;2.13;;;15.20;96.80;;;;;;7399350;19;19919;-73
2023/03/30 08:23:07;;;;;;;6.93;2.45;;;15.30;96.40;;;;;;7403031;19;19948;-74
2023/03/30 08:25:33;;;;;;;10.55;2.80;;;15.50;96.20;;;;;;7403201;19;19930;-73
2023/03/30 08:27:59;;;;;;;15.45;2.83;;;15.60;95.90;;;;;;7399018;19;19911;-73
2023/03/30 08:30:26;;;;;;;7.63;2.40;;;15.80;95.70;;;;;;7396876;19;19911;-73
2023/03/30 08:32:54;;;;;;;8.55;2.35;;;16.00;95.00;;;;;;7396766;19;20017;-74
2023/03/30 08:35:23;;;;;;;10.38;2.88;;;15.90;95.00;;;;;;7399097;19;19942;-73
2023/03/30 08:37:49;;;;;;;10.98;2.53;;;16.80;94.40;;;;;;7400246;19;19922;-73
2023/03/30 08:40:16;;;;;;;10.38;3.20;;;18.50;91.40;;;;;;7403547;19;19954;-73
2023/03/30 08:42:57;;;;;;;10.45;3.38;;;19.00;89.50;;;;;;7394462;19;19919;-73
2023/03/30 08:45:35;;;;;;;9.40;3.10;;;20.30;85.70;;;;;;7395765;19;21801;-73
2023/03/30 08:48:02;;;;;;;9.57;2.72;;;20.90;82.90;;;;;;7404811;19;19930;-74
2023/03/30 08:50:32;;;;;;;6.65;2.65;;;21.50;80.30;;;;;;7396753;19;20350;-75
2023/03/30 08:52:58;;;;;;;9.30;3.35;;;21.50;80.30;;;;;;7391421;19;19925;-73
2023/03/30 08:55:36;;;;;;;9.38;3.55;;;21.90;80.10;;;;;;7396102;19;20517;-73
2023/03/30 08:58:18;;;;;;;10.70;3.35;;;22.40;79.00;;;;;;7396200;19;19922;-74
2023/03/30 09:01:20;;;;;;;13.35;4.22;;;22.40;78.40;;;;;;7386791;19;19914;-74
2023/03/30 09:04:05;;;;;;;11.45;3.65;;;22.50;76.20;;;;;;7340282;19;19935;-74
2023/03/30 09:07:09;;;;;;;10.50;3.95;;;23.40;75.60;;;;;;7392780;19;19911;-73
2023/03/30 09:09:41;;;;;;;10.13;4.03;;;22.20;78.30;;;;;;7394702;19;19911;-75
2023/03/30 09:12:24;;;;;;;15.57;4.07;;;20.20;80.10;;;;;;7398966;19;19923;-74
2023/03/30 09:14:58;;;;;;;15.25;3.90;;;20.50;81.90;;;;;;7395135;19;20251;-73
2023/03/30 09:17:50;;;;;;;10.30;3.53;;;19.80;82.30;;;;;;7397919;19;19927;-73
2023/03/30 09:20:24;;;;;;;13.57;4.30;;;21.40;80.40;;;;;;7398681;19;19915;-74
2023/03/30 09:22:53;;;;;;;10.30;3.38;;;22.10;77.60;;;;;;7345890;19;19943;-75
2023/03/30 09:25:49;;;;;;;11.07;3.60;;;21.50;79.00;;;;;;7344725;19;19931;-74
2023/03/30 09:28:47;;;;;;;12.60;4.72;;;21.50;78.20;;;;;;7394312;19;19919;-73
2023/03/30 09:31:25;;;;;;;14.20;4.10;;;22.10;77.70;;;;;;7391142;19;20019;-75
2023/03/30 09:33:56;;;;;;;16.58;4.40;;;23.00;74.80;;;;;;7401335;19;19915;-75
2023/03/30 09:36:32;;;;;;;14.05;4.35;;;23.60;74.30;;;;;;7344959;19;19938;-74
2023/03/30 09:38:58;;;;;;;11.95;3.67;;;22.70;74.00;;;;;;7399009;19;19914;-75
2023/03/30 09:41:46;;;;;;;15.13;4.00;;;21.80;76.00;;;;;;7393765;19;19927;-74
2023/03/30 09:44:38;;;;;;;11.57;4.22;;;23.30;74.80;;;;;;7391709;19;19946;-73
2023/03/30 09:47:23;;;;;;;13.02;4.22;;;23.70;74.90;;;;;;7376863;19;19926;-73
2023/03/30 09:50:01;;;;;;;15.85;4.82;;;24.10;72.50;;;;;;7394804;19;19918;-73
2023/03/30 09:52:30;;;;;;;10.30;3.70;;;25.10;70.90;;;;;;7395545;19;20332;-73
2023/03/30 09:55:01;;;;;;;10.25;4.03;;;24.60;70.60;;;;;;7398046;19;19922;-73
2023/03/30 09:57:29;;;;;;;12.90;4.13;;;24.50;70.70;;;;;;7390272;19;19910;-73
2023/03/30 09:59:58;;;;;;;13.18;4.72;;;23.30;72.10;;;;;;7403558;19;19927;-73
2023/03/30 10:02:27;;;;;;;12.77;4.63;;;22.70;74.90;;;;;;7397594;19;19925;-73
2023/03/30 10:04:53;;;;;;;14.18;5.40;;;23.30;74.00;;;;;;7395320;19;19925;-72
2023/03/30 10:07:37;;;;;;;13.52;4.90;;;23.20;73.40;;;;;;7398390;19;20395;-72
2023/03/30 10:10:33;;;;;;;14.15;4.85;;;23.10;73.50;;;;;;7396569;19;19919;-73
2023/03/30 10:13:14;;;;;;;18.35;5.38;;;22.60;76.00;;;;;;7404985;19;19915;-71
2023/03/30 10:15:45;;;;;;;13.95;4.70;;;21.60;78.10;;;;;;7408267;19;19922;-73
2023/03/30 10:18:22;;;;;;;18.45;5.75;;;21.80;78.10;;;;;;7406618;19;19922;-71
2023/03/30 10:21:02;;;;;;;12.63;4.82;;;20.90;79.90;;;;;;7407750;19;19943;-72
2023/03/30 10:23:41;;;;;;;14.93;5.57;;;21.20;80.90;;;;;;7406680;19;19922;-73
2023/03/30 10:26:17;;;;;;;16.33;4.63;;;21.00;82.80;;;;;;7404869;19;19929;-72
2023/03/30 10:29:01;;;;;;;12.57;4.45;;;21.80;81.10;;;;;;7403176;19;19938;-73
2023/03/30 10:31:28;;;;;;;16.02;4.65;;;21.30;82.00;;;;;;7350650;19;20582;-74
2023/03/30 10:33:55;;;;;;;;;;;21.80;80.80;;;;;;7409850;19;20753;-73
2023/03/30 10:36:27;;;;;;;13.52;4.32;;;21.50;81.60;;;;;;7401237;19;19914;-73
2023/03/30 10:38:53;;;;;;;15.48;5.75;;;21.70;81.50;;;;;;7403938;19;19923;-74
2023/03/30 10:41:22;;;;;;;12.93;4.57;;;22.20;80.50;;;;;;7404740;19;19921;-74
2023/03/30 10:43:49;;;;;;;12.60;4.18;;;21.60;82.00;;;;;;7353998;19;19918;-73
2023/03/30 10:46:21;;;;;;;15.60;5.18;;;21.10;84.10;;;;;;7402666;19;19922;-74
2023/03/30 10:48:59;;;;;;;17.35;5.47;;;20.90;85.10;;;;;;7398864;19;19925;-74
2023/03/30 10:51:51;;;;;;;18.48;4.65;;;20.90;85.30;;;;;;7400962;19;19907;-76
2023/03/30 10:54:41;;;;;;;13.82;4.47;;;20.20;87.50;;;;;;7403497;19;19935;-76
2023/03/30 10:57:14;;;;;;;15.43;5.00;;;20.50;87.60;;;;;;7404323;19;20284;-73
2023/03/30 11:00:21;;;;;;;13.60;5.10;;;20.50;87.70;;;;;;7409108;19;19914;-73
2023/03/30 11:03:05;;;;;;;12.07;4.22;;;20.60;86.20;;;;;;7404008;19;19919;-74
2023/03/30 11:05:40;;;;;;;12.70;4.07;;;21.20;85.80;;;;;;7408144;19;20246;-75
2023/03/30 11:08:27;;;;;;;10.38;4.53;;;21.70;83.40;;;;;;7404694;19;19918;-74
2023/03/30 11:10:56;;;;;;;15.23;5.03;;;22.20;83.70;;;;;;7409868;19;19918;-74
2023/03/30 11:13:29;;;;;;;13.90;5.40;;;22.70;82.00;;;;;;7405876;19;20029;-74
2023/03/30 11:16:12;;;;;;;13.45;4.82;;;22.80;81.30;;;;;;7405918;19;19926;-73
2023/03/30 11:18:47;;;;;;;14.77;4.72;;;22.70;81.60;;;;;;7407820;19;19926;-73
2023/03/30 11:21:25;;;;;;;14.60;5.80;;;22.70;80.90;;;;;;7405703;19;20535;-74
2023/03/30 11:23:58;;;;;;;10.85;3.97;;;22.50;81.30;;;;;;7404483;19;19953;-75
2023/03/30 11:26:42;;;;;;;15.45;5.18;;;22.20;82.10;;;;;;7406404;19;19942;-73
2023/03/30 11:29:36;;;;;;;16.70;5.68;;;21.60;84.00;;;;;;7404326;19;19934;-73
2023/03/30 11:32:40;;;;;;;14.40;5.57;;;21.20;85.30;;;;;;7405890;19;19926;-74
2023/03/30 11:35:33;;;;;;;19.17;5.72;;;21.80;84.90;;;;;;7401333;19;19936;-74
2023/03/30 11:38:11;;;;;;;14.35;5.65;;;23.10;80.90;;;;;;7355583;19;19915;-72
2023/03/30 11:40:42;;;;;;;15.23;6.00;;;23.10;79.50;;;;;;7402074;19;20324;-71
2023/03/30 11:43:17;;;;;;;14.57;5.15;;;23.20;80.70;;;;;;7404971;19;20011;-72
2023/03/30 11:45:59;;;;;;;15.52;5.03;;;23.40;79.60;;;;;;7406693;19;20268;-72
2023/03/30 11:48:54;;;;;;;15.57;5.03;;;23.90;78.30;;;;;;7350648;19;19911;-72
2023/03/30 11:51:48;;;;;;;12.15;4.78;;;23.30;79.80;;;;;;7403359;19;20630;-73
2023/03/30 11:54:32;;;;;;;14.52;5.10;;;23.60;79.40;;;;;;7404299;19;19995;-73
2023/03/30 11:57:20;;;;;;;17.17;5.35;;;24.50;77.20;;;;;;7406461;19;19918;-72
2023/03/30 12:00:11;;;;;;;15.85;5.75;;;25.60;74.60;;;;;;7407911;19;19919;-73
2023/03/30 12:02:51;;;;;;;48.05;8.80;;;26.30;72.20;;;;;;7402780;19;20528;-73
2023/03/30 12:05:42;;;;;;;13.25;5.25;;;26.60;69.90;;;;;;7405335;19;19923;-73
2023/03/30 12:08:42;;;;;;;14.10;6.32;;;26.50;68.50;;;;;;7406429;19;19921;-73
2023/03/30 12:11:37;;;;;;;14.18;5.60;;;27.10;69.00;;;;;;7406282;19;19906;-73
2023/03/30 12:14:40;;;;;;;16.95;5.07;;;27.00;68.40;;;;;;7388289;19;19922;-73
2023/03/30 12:17:29;;;;;;;16.10;5.93;;;27.30;67.60;;;;;;7398799;19;20272;-73
2023/03/30 12:20:03;;;;;;;13.80;4.50;;;27.10;67.40;;;;;;7404389;19;19918;-74
2023/03/30 12:22:34;;;;;;;10.55;4.15;;;27.10;66.80;;;;;;7403253;19;19914;-74
2023/03/30 12:25:16;;;;;;;13.15;5.13;;;27.30;66.20;;;;;;7404498;19;19919;-73
2023/03/30 12:28:08;;;;;;;12.00;4.47;;;27.90;65.00;;;;;;7404484;19;19930;-74
2023/03/30 12:30:47;;;;;;;11.10;4.20;;;27.10;64.40;;;;;;7402429;19;19918;-74
2023/03/30 12:33:42;;;;;;;12.38;4.80;;;27.50;63.70;;;;;;7402594;19;19914;-73
2023/03/30 12:36:38;;;;;;;12.35;4.82;;;27.10;63.60;;;;;;7352840;19;19926;-75
2023/03/30 12:39:31;;;;;;;14.85;5.10;;;27.50;63.40;;;;;;7401314;19;19914;-73
2023/03/30 12:42:24;;;;;;;12.43;4.25;;;27.30;63.70;;;;;;7407908;19;19919;-74
2023/03/30 12:45:30;;;;;;;12.98;4.60;;;27.00;63.80;;;;;;7404039;19;19946;-73
2023/03/30 12:48:05;;;;;;;10.75;4.30;;;26.80;65.10;;;;;;7396783;19;19922;-73
2023/03/30 12:50:40;;;;;;;11.63;3.95;;;25.80;65.70;;;;;;7401634;19;20255;-74
2023/03/30 12:53:50;;;;;;;12.95;4.10;;;25.40;67.60;;;;;;7402392;19;19918;-74
2023/03/30 12:56:30;;;;;;;14.23;4.85;;;25.30;67.20;;;;;;7398830;19;19982;-74
2023/03/30 12:58:55;;;;;;;11.88;3.95;;;25.30;67.40;;;;;;7382629;19;19915;-73
2023/03/30 13:01:36;;;;;;;11.23;4.07;;;24.70;68.10;;;;;;7403129;19;19925;-73
2023/03/30 13:04:12;;;;;;;13.68;4.05;;;24.20;69.10;;;;;;7396734;19;19930;-75
2023/03/30 13:07:01;;;;;;;14.07;3.85;;;23.50;70.50;;;;;;7403156;19;19929;-73
2023/03/30 13:09:31;;;;;;;14.82;3.90;;;22.90;72.60;;;;;;7402381;19;19918;-73
2023/03/30 13:11:57;;;;;;;12.10;4.13;;;22.90;72.80;;;;;;7403851;19;19919;-74
2023/03/30 13:14:38;;;;;;;11.35;4.68;;;22.80;72.50;;;;;;7401922;19;19918;-74